createdAt,value
2018-04-14T00:01:34.277Z,97721.03
2018-04-14T00:04:05.324Z,97726.40
2018-04-14T00:06:36.350Z,97736.52
2018-04-14T00:09:07.366Z,97736.20
2018-04-14T00:11:38.403Z,97733.41
2018-04-14T00:14:09.411Z,97734.74
2018-04-14T00:16:40.452Z,97735.08
2018-04-14T00:19:11.461Z,97733.23
2018-04-14T00:21:42.428Z,97736.14
2018-04-14T00:24:13.505Z,97737.31
2018-04-14T00:26:44.546Z,97736.66
2018-04-14T00:29:15.577Z,97733.05
2018-04-14T00:31:53.591Z,97736.31
2018-04-14T00:34:24.600Z,97737.30
2018-04-14T00:36:55.586Z,97732.27
2018-04-14T00:39:26.553Z,97743.08
2018-04-14T00:41:57.572Z,97735.13
2018-04-14T00:44:28.530Z,97737.58
2018-04-14T00:46:59.554Z,97738.56
2018-04-14T00:49:30.560Z,97735.10
2018-04-14T00:52:01.551Z,97738.00
2018-04-14T00:54:32.584Z,97745.83
2018-04-14T00:57:03.595Z,97741.65
2018-04-14T00:59:34.626Z,97746.87
2018-04-14T01:02:05.662Z,97747.95
2018-04-14T01:04:36.703Z,97750.08
2018-04-14T01:07:07.648Z,97749.22
2018-04-14T01:09:38.650Z,97748.09
2018-04-14T01:12:09.658Z,97748.83
2018-04-14T01:14:40.696Z,97747.52
2018-04-14T01:17:11.711Z,97741.47
2018-04-14T01:19:42.764Z,97743.48
2018-04-14T01:22:13.857Z,97742.40
2018-04-14T01:24:44.891Z,97745.79
2018-04-14T01:27:15.915Z,97745.61
2018-04-14T01:29:46.916Z,97741.78
2018-04-14T01:32:17.952Z,97742.30
2018-04-14T01:34:48.953Z,97744.12
2018-04-14T01:37:19.999Z,97749.19
2018-04-14T01:39:50.969Z,97754.04
2018-04-14T01:42:22.011Z,97751.16
2018-04-14T01:44:53.057Z,97751.42
2018-04-14T01:47:24.067Z,97755.83
2018-04-14T01:49:55.135Z,97757.37
2018-04-14T01:52:26.070Z,97757.08
2018-04-14T01:54:57.059Z,97758.35
2018-04-14T01:57:28.095Z,97759.08
2018-04-14T01:59:59.167Z,97763.71
2018-04-14T02:02:30.166Z,97763.64
2018-04-14T02:05:01.138Z,97765.86
2018-04-14T02:07:32.132Z,97767.07
2018-04-14T02:10:03.198Z,97760.10
2018-04-14T02:12:34.185Z,97765.36
2018-04-14T02:15:05.201Z,97772.83
2018-04-14T02:17:36.239Z,97776.19
2018-04-14T02:20:07.241Z,97775.92
2018-04-14T02:22:38.257Z,97768.09
2018-04-14T02:25:09.222Z,97767.36
2018-04-14T02:27:40.243Z,97768.48
2018-04-14T02:30:11.275Z,97769.22
2018-04-14T02:32:42.336Z,97756.45
2018-04-14T02:35:13.390Z,97761.16
2018-04-14T02:37:44.398Z,97764.04
2018-04-14T02:40:15.395Z,97759.02
2018-04-14T02:42:46.387Z,97758.61
2018-04-14T02:45:17.365Z,97763.56
2018-04-14T02:47:48.386Z,97773.73
2018-04-14T02:50:19.394Z,97771.66
2018-04-14T02:52:50.401Z,97774.34
2018-04-14T02:55:21.420Z,97777.91
2018-04-14T02:57:52.447Z,97785.28
2018-04-14T03:00:23.487Z,97782.25
2018-04-14T03:03:09.416Z,97778.53
2018-04-14T03:05:40.450Z,97778.63
2018-04-14T03:08:11.486Z,97774.36
2018-04-14T03:10:42.464Z,97774.47
2018-04-14T03:13:13.478Z,97778.88
2018-04-14T03:15:44.490Z,97783.02
2018-04-14T03:18:15.529Z,97782.63
2018-04-14T03:20:46.531Z,97786.84
2018-04-14T03:23:17.532Z,97783.75
2018-04-14T03:25:48.589Z,97791.94
2018-04-14T03:28:19.582Z,97789.67
2018-04-14T03:30:50.581Z,97803.11
2018-04-14T03:33:21.586Z,97802.41
2018-04-14T03:35:52.600Z,97799.75
2018-04-14T03:38:23.550Z,97801.78
2018-04-14T03:40:54.512Z,97798.65
2018-04-14T03:43:25.511Z,97797.34
2018-04-14T03:45:56.518Z,97801.19
2018-04-14T03:48:27.495Z,97805.86
2018-04-14T03:50:58.506Z,97811.94
2018-04-14T03:53:36.514Z,97806.21
2018-04-14T03:56:07.537Z,97806.61
2018-04-14T03:58:38.514Z,97805.59
2018-04-14T04:01:09.496Z,97813.57
2018-04-14T04:03:40.520Z,97812.95
2018-04-14T04:06:11.507Z,97815.77
2018-04-14T04:08:42.552Z,97808.30
2018-04-14T04:11:13.589Z,97815.98
2018-04-14T04:13:44.631Z,97813.41
2018-04-14T04:16:15.597Z,97814.98
2018-04-14T04:18:58.722Z,97822.45
2018-04-14T04:21:42.150Z,97824.78
2018-04-14T04:24:25.594Z,97827.41
2018-04-14T04:26:56.596Z,97830.43
2018-04-14T04:29:27.564Z,97834.41
2018-04-14T04:31:58.640Z,97838.48
2018-04-14T04:34:29.673Z,97842.03
2018-04-14T04:37:00.681Z,97844.23
2018-04-14T04:39:31.667Z,97846.28
2018-04-14T04:42:02.690Z,97856.85
2018-04-14T04:44:33.716Z,97858.54
2018-04-14T04:47:04.760Z,97857.36
2018-04-14T04:49:35.730Z,97864.12
2018-04-14T04:52:06.776Z,97863.15
2018-04-14T04:54:37.800Z,97866.70
2018-04-14T04:57:08.807Z,97873.13
2018-04-14T04:59:39.832Z,97874.20
2018-04-14T05:02:10.862Z,97877.33
2018-04-14T05:04:41.901Z,97886.30
2018-04-14T05:07:12.921Z,97889.45
2018-04-14T05:09:43.966Z,97891.44
2018-04-14T05:12:15.890Z,97890.66
2018-04-14T05:14:47.101Z,97899.13
2018-04-14T05:17:20.010Z,97904.50
2018-04-14T05:19:51.090Z,97904.14
2018-04-14T05:22:22.126Z,97903.44
2018-04-14T05:24:53.102Z,97911.73
2018-04-14T05:27:24.116Z,97908.90
2018-04-14T05:29:55.176Z,97910.38
2018-04-14T05:32:26.248Z,97918.55
2018-04-14T05:34:57.223Z,97925.22
2018-04-14T05:37:28.252Z,97926.19
2018-04-14T05:39:59.198Z,97927.69
2018-04-14T05:42:30.181Z,97927.63
2018-04-14T05:45:01.218Z,97925.82
2018-04-14T05:47:32.201Z,97927.44
2018-04-14T05:50:03.223Z,97925.81
2018-04-14T05:52:34.210Z,97936.58
2018-04-14T05:55:12.211Z,97933.67
2018-04-14T05:57:43.185Z,97932.18
2018-04-14T06:00:14.249Z,97925.56
2018-04-14T06:02:45.282Z,97919.78
2018-04-14T06:05:16.320Z,97928.19
2018-04-14T06:07:47.342Z,97932.80
2018-04-14T06:10:18.329Z,97931.66
2018-04-14T06:12:49.287Z,97935.11
2018-04-14T06:15:20.289Z,97934.41
2018-04-14T06:17:51.266Z,97934.72
2018-04-14T06:20:22.252Z,97932.12
2018-04-14T06:22:53.316Z,97931.80
2018-04-14T06:25:24.358Z,97930.03
2018-04-14T06:27:55.372Z,97933.73
2018-04-14T06:30:26.411Z,97940.60
2018-04-14T06:32:57.432Z,97937.58
2018-04-14T06:35:28.431Z,97937.93
2018-04-14T06:37:59.420Z,97935.11
2018-04-14T06:40:37.307Z,97930.88
2018-04-14T06:43:08.306Z,97941.64
2018-04-14T06:45:39.293Z,97939.69
2018-04-14T06:48:10.276Z,97934.92
2018-04-14T06:50:41.284Z,97927.50
2018-04-14T06:53:12.223Z,97921.05
2018-04-14T06:55:43.258Z,97909.31
2018-04-14T06:58:14.308Z,97911.78
2018-04-14T07:00:45.309Z,97914.83
2018-04-14T07:03:16.333Z,97918.03
2018-04-14T07:05:47.327Z,97918.77
2018-04-14T07:08:18.366Z,97913.06
2018-04-14T07:10:49.372Z,97911.27
2018-04-14T07:13:20.404Z,97908.05
2018-04-14T07:15:51.423Z,97910.81
2018-04-14T07:18:22.473Z,97918.01
2018-04-14T07:20:53.489Z,97906.09
2018-04-14T07:23:24.535Z,97909.88
2018-04-14T07:25:55.559Z,97912.84
2018-04-14T07:28:26.666Z,97914.56
2018-04-14T07:30:57.728Z,97911.84
2018-04-14T07:33:28.744Z,97912.30
2018-04-14T07:35:59.706Z,97913.62
2018-04-14T07:38:30.757Z,97911.19
2018-04-14T07:41:01.867Z,97914.59
2018-04-14T07:43:32.854Z,97916.00
2018-04-14T07:46:03.886Z,97913.08
2018-04-14T07:48:34.924Z,97912.98
2018-04-14T07:51:05.951Z,97913.05
2018-04-14T07:53:36.924Z,97901.23
2018-04-14T07:56:08.039Z,97907.23
2018-04-14T07:58:39.107Z,97904.48
2018-04-14T08:01:10.131Z,97907.93
2018-04-14T08:03:41.292Z,97901.94
2018-04-14T08:06:12.455Z,97906.56
2018-04-14T08:08:43.495Z,97906.91
2018-04-14T08:11:14.516Z,97908.03
2018-04-14T08:13:45.634Z,97913.34
2018-04-14T08:16:16.620Z,97904.05
2018-04-14T08:18:47.726Z,97900.87
2018-04-14T08:21:18.729Z,97906.31
2018-04-14T08:23:49.877Z,97904.75
2018-04-14T08:26:20.906Z,97904.55
2018-04-14T08:28:51.980Z,97901.50
2018-04-14T08:31:23.021Z,97897.74
2018-04-14T08:33:54.054Z,97895.40
2018-04-14T08:36:25.128Z,97901.75
2018-04-14T08:38:56.157Z,97900.39
2018-04-14T08:41:27.211Z,97898.88
2018-04-14T08:43:58.223Z,97903.28
2018-04-14T08:46:29.230Z,97902.18
2018-04-14T08:49:00.276Z,97895.28
2018-04-14T08:51:31.319Z,97889.16
2018-04-14T08:54:03.198Z,97893.80
2018-04-14T08:56:34.185Z,97890.53
2018-04-14T08:59:05.183Z,97887.97
2018-04-14T09:01:36.190Z,97888.22
2018-04-14T09:04:07.310Z,97892.11
2018-04-14T09:06:38.374Z,97890.09
2018-04-14T09:09:09.388Z,97887.02
2018-04-14T09:11:40.428Z,97886.88
2018-04-14T09:14:11.441Z,97883.82
2018-04-14T09:16:42.475Z,97879.69
2018-04-14T09:19:13.526Z,97880.52
2018-04-14T09:21:44.543Z,97885.83
2018-04-14T09:24:15.594Z,97885.77
2018-04-14T09:26:46.609Z,97880.07
2018-04-14T09:29:17.670Z,97884.38
2018-04-14T09:31:48.692Z,97884.75
2018-04-14T09:34:19.679Z,97890.50
2018-04-14T09:36:50.666Z,97882.58
2018-04-14T09:39:21.669Z,97880.03
2018-04-14T09:41:52.679Z,97878.96
2018-04-14T09:44:23.678Z,97881.14
2018-04-14T09:46:54.652Z,97875.50
2018-04-14T09:49:25.655Z,97869.44
2018-04-14T09:51:56.698Z,97871.80
2018-04-14T09:54:27.711Z,97867.90
2018-04-14T09:56:58.727Z,97865.61
2018-04-14T09:59:30.040Z,97860.47
2018-04-14T10:02:01.073Z,97857.48
2018-04-14T10:04:33.131Z,97859.61
2018-04-14T10:07:04.154Z,97857.53
2018-04-14T10:09:35.167Z,97854.44
2018-04-14T10:12:06.203Z,97851.80
2018-04-14T10:14:37.224Z,97850.44
2018-04-14T10:17:08.265Z,97851.40
2018-04-14T10:19:39.351Z,97849.80
2018-04-14T10:22:10.409Z,97846.69
2018-04-14T10:24:41.432Z,97848.75
2018-04-14T10:27:12.472Z,97849.50
2018-04-14T10:29:43.541Z,97841.94
2018-04-14T10:32:14.552Z,97836.02
2018-04-14T10:34:45.555Z,97834.48
2018-04-14T10:37:23.629Z,97833.48
2018-04-14T10:39:54.665Z,97826.33
2018-04-14T10:42:25.751Z,97824.99
2018-04-14T10:44:56.822Z,97826.27
2018-04-14T10:47:27.826Z,97821.16
2018-04-14T10:49:58.866Z,97822.75
2018-04-14T10:52:31.315Z,97815.20
2018-04-14T10:55:04.406Z,97817.02
2018-04-14T10:57:35.585Z,97816.38
2018-04-14T11:00:06.699Z,97816.75
2018-04-14T11:02:37.849Z,97808.84
2018-04-14T11:05:08.874Z,97808.97
2018-04-14T11:07:39.911Z,97806.92
2018-04-14T11:10:10.881Z,97813.33
2018-04-14T11:12:41.884Z,97814.53
2018-04-14T11:15:12.941Z,97810.67
2018-04-14T11:17:43.926Z,97812.30
2018-04-14T11:20:15.958Z,97813.78
2018-04-14T11:22:46.967Z,97813.11
2018-04-14T11:25:18.008Z,97815.35
2018-04-14T11:27:49.026Z,97816.62
2018-04-14T11:30:20.043Z,97816.06
2018-04-14T11:32:51.072Z,97819.18
2018-04-14T11:35:22.085Z,97818.81
2018-04-14T11:37:53.090Z,97811.66
2018-04-14T11:40:24.086Z,97814.79
2018-04-14T11:42:55.093Z,97815.13
2018-04-14T11:45:26.135Z,97809.32
2018-04-14T11:47:57.184Z,97812.13
2018-04-14T11:50:28.206Z,97821.30
2018-04-14T11:52:59.251Z,97822.05
2018-04-14T11:55:30.312Z,97811.14
2018-04-14T11:58:01.306Z,97813.72
2018-04-14T12:00:32.358Z,97814.23
2018-04-14T12:03:03.373Z,97818.50
2018-04-14T12:05:34.375Z,97812.36
2018-04-14T12:08:05.408Z,97814.23
2018-04-14T12:10:36.408Z,97811.27
2018-04-14T12:13:07.486Z,97810.81
2018-04-14T12:15:45.448Z,97809.51
2018-04-14T12:18:16.513Z,97816.19
2018-04-14T12:20:47.499Z,97813.73
2018-04-14T12:23:18.554Z,97813.33
2018-04-14T12:25:49.614Z,97810.85
2018-04-14T12:28:20.638Z,97808.85
2018-04-14T12:30:51.620Z,97809.45
2018-04-14T12:33:22.680Z,97811.14
2018-04-14T12:35:53.676Z,97798.47
2018-04-14T12:38:24.756Z,97812.64
2018-04-14T12:40:55.832Z,97799.42
2018-04-14T12:43:26.822Z,97799.16
2018-04-14T12:45:57.846Z,97796.97
2018-04-14T12:48:28.842Z,97797.73
2018-04-14T12:50:59.892Z,97792.16
2018-04-14T12:53:30.851Z,97787.62
2018-04-14T12:56:01.893Z,97785.09
2018-04-14T12:58:32.905Z,97784.16
2018-04-14T13:01:03.903Z,97778.50
2018-04-14T13:03:34.894Z,97772.41
2018-04-14T13:06:05.954Z,97773.48
2018-04-14T13:08:36.912Z,97772.94
2018-04-14T13:11:07.906Z,97772.91
2018-04-14T13:13:38.917Z,97759.51
2018-04-14T13:16:09.981Z,97757.66
2018-04-14T13:18:41.026Z,97759.75
2018-04-14T13:21:12.038Z,97753.58
2018-04-14T13:23:42.998Z,97750.05
2018-04-14T13:26:14.011Z,97746.23
2018-04-14T13:28:45.025Z,97743.62
2018-04-14T13:31:16.007Z,97748.12
2018-04-14T13:33:47.005Z,97743.45
2018-04-14T13:36:18.056Z,97744.67
2018-04-14T13:38:49.051Z,97742.59
2018-04-14T13:41:20.177Z,97742.75
2018-04-14T13:43:51.264Z,97739.83
2018-04-14T13:46:22.318Z,97730.20
2018-04-14T13:48:53.366Z,97736.95
2018-04-14T13:51:24.380Z,97731.34
2018-04-14T13:53:55.411Z,97735.39
2018-04-14T13:56:26.427Z,97727.25
2018-04-14T13:58:57.471Z,97723.67
2018-04-14T14:01:28.437Z,97728.52
2018-04-14T14:03:59.450Z,97725.27
2018-04-14T14:06:30.496Z,97723.81
2018-04-14T14:09:01.452Z,97719.09
2018-04-14T14:11:32.448Z,97717.98
2018-04-14T14:14:03.445Z,97717.96
2018-04-14T14:16:34.451Z,97706.11
2018-04-14T14:19:05.486Z,97710.35
2018-04-14T14:21:36.528Z,97718.14
2018-04-14T14:24:07.562Z,97712.30
2018-04-14T14:26:38.555Z,97712.88
2018-04-14T14:29:09.578Z,97716.30
2018-04-14T14:31:40.654Z,97715.92
2018-04-14T14:34:11.632Z,97711.92
2018-04-14T14:36:42.682Z,97710.53
2018-04-14T14:39:13.689Z,97709.52
2018-04-14T14:41:44.725Z,97708.51
2018-04-14T14:44:15.771Z,97707.14
2018-04-14T14:46:46.738Z,97709.03
2018-04-14T14:49:17.784Z,97707.06
2018-04-14T14:51:48.791Z,97705.36
2018-04-14T14:54:19.826Z,97703.42
2018-04-14T14:56:50.808Z,97696.56
2018-04-14T14:59:21.793Z,97693.44
2018-04-14T15:01:52.884Z,97691.47
2018-04-14T15:04:23.885Z,97691.84
2018-04-14T15:06:54.909Z,97696.83
2018-04-14T15:09:25.934Z,97694.97
2018-04-14T15:11:56.945Z,97693.59
2018-04-14T15:14:27.988Z,97682.95
2018-04-14T15:16:58.984Z,97683.87
2018-04-14T15:19:30.001Z,97682.16
2018-04-14T15:22:01.048Z,97675.27
2018-04-14T15:24:32.060Z,97679.44
2018-04-14T15:27:03.073Z,97681.63
2018-04-14T15:29:34.051Z,97679.72
2018-04-14T15:32:05.064Z,97686.59
2018-04-14T15:34:36.072Z,97694.27
2018-04-14T15:37:07.092Z,97680.45
2018-04-14T15:39:38.068Z,97676.23
2018-04-14T15:42:09.062Z,97670.74
2018-04-14T15:44:40.065Z,97668.02
2018-04-14T15:47:11.030Z,97659.58
2018-04-14T15:49:42.051Z,97658.98
2018-04-14T15:52:13.083Z,97653.70
2018-04-14T15:54:44.082Z,97656.13
2018-04-14T15:57:15.075Z,97660.83
2018-04-14T15:59:46.065Z,97655.66
2018-04-14T16:02:17.142Z,97661.98
2018-04-14T16:04:48.140Z,97660.91
2018-04-14T16:07:19.150Z,97654.56
2018-04-14T16:09:50.186Z,97657.44
2018-04-14T16:12:21.238Z,97655.90
2018-04-14T16:14:52.283Z,97649.95
2018-04-14T16:17:23.328Z,97642.02
2018-04-14T16:19:54.362Z,97638.86
2018-04-14T16:22:25.670Z,97632.98
2018-04-14T16:24:56.679Z,97625.63
2018-04-14T16:27:27.725Z,97629.64
2018-04-14T16:29:58.768Z,97627.53
2018-04-14T16:32:29.919Z,97632.58
2018-04-14T16:35:00.956Z,97636.56
2018-04-14T16:37:32.039Z,97631.95
2018-04-14T16:40:03.067Z,97625.83
2018-04-14T16:42:34.126Z,97628.61
2018-04-14T16:45:05.182Z,97632.58
2018-04-14T16:47:36.235Z,97624.43
2018-04-14T16:50:07.278Z,97625.19
2018-04-14T16:52:38.265Z,97623.78
2018-04-14T16:55:09.310Z,97618.80
2018-04-14T16:57:40.365Z,97622.98
2018-04-14T17:00:11.395Z,97610.55
2018-04-14T17:02:42.386Z,97610.30
2018-04-14T17:05:13.431Z,97613.36
2018-04-14T17:07:44.441Z,97611.48
2018-04-14T17:10:15.493Z,97612.23
2018-04-14T17:12:46.515Z,97622.48
2018-04-14T17:15:17.501Z,97625.31
2018-04-14T17:17:48.507Z,97611.77
2018-04-14T17:20:19.515Z,97611.34
2018-04-14T17:22:50.552Z,97609.27
2018-04-14T17:25:21.593Z,97605.36
2018-04-14T17:27:52.598Z,97600.11
2018-04-14T17:30:23.600Z,97598.07
2018-04-14T17:32:54.657Z,97598.27
2018-04-14T17:35:25.715Z,97608.24
2018-04-14T17:37:56.706Z,97610.91
2018-04-14T17:40:27.764Z,97614.63
2018-04-14T17:42:58.791Z,97616.73
2018-04-14T17:45:29.859Z,97615.80
2018-04-14T17:48:00.855Z,97617.82
2018-04-14T17:50:31.796Z,97628.02
2018-04-14T17:53:02.826Z,97627.11
2018-04-14T17:55:33.794Z,97625.63
2018-04-14T17:58:04.844Z,97622.33
2018-04-14T18:00:35.879Z,97625.75
2018-04-14T18:03:06.933Z,97629.87
2018-04-14T18:05:37.953Z,97622.71
2018-04-14T18:08:09.041Z,97624.50
2018-04-14T18:10:40.054Z,97631.89
2018-04-14T18:13:11.063Z,97632.13
2018-04-14T18:15:42.056Z,97637.67
2018-04-14T18:18:13.076Z,97646.52
2018-04-14T18:20:44.111Z,97652.64
2018-04-14T18:23:15.124Z,97659.41
2018-04-14T18:25:46.132Z,97654.44
2018-04-14T18:28:17.138Z,97652.95
2018-04-14T18:30:48.147Z,97649.92
2018-04-14T18:33:19.126Z,97648.26
2018-04-14T18:35:50.145Z,97659.20
2018-04-14T18:38:21.155Z,97663.59
2018-04-14T18:40:52.179Z,97663.84
2018-04-14T18:43:23.206Z,97664.58
2018-04-14T18:45:54.186Z,97663.52
2018-04-14T18:48:25.217Z,97671.84
2018-04-14T18:50:56.288Z,97675.26
2018-04-14T18:53:27.303Z,97675.09
2018-04-14T18:55:58.321Z,97671.13
2018-04-14T18:58:29.546Z,97669.48
2018-04-14T19:01:00.556Z,97663.56
2018-04-14T19:03:31.576Z,97668.67
2018-04-14T19:06:02.588Z,97662.41
2018-04-14T19:08:33.541Z,97668.87
2018-04-14T19:11:04.566Z,97674.77
2018-04-14T19:13:35.569Z,97670.71
2018-04-14T19:16:06.676Z,97671.02
2018-04-14T19:18:37.661Z,97672.32
2018-04-14T19:21:08.690Z,97676.14
2018-04-14T19:23:39.734Z,97671.45
2018-04-14T19:26:10.795Z,97668.01
2018-04-14T19:28:41.777Z,97663.86
2018-04-14T19:31:12.790Z,97672.01
2018-04-14T19:33:43.804Z,97662.06
2018-04-14T19:36:14.764Z,97661.16
2018-04-14T19:38:45.772Z,97664.54
2018-04-14T19:41:16.741Z,97657.13
2018-04-14T19:43:47.752Z,97668.11
2018-04-14T19:46:18.752Z,97664.87
2018-04-14T19:48:49.761Z,97660.36
2018-04-14T19:51:20.865Z,97664.21
2018-04-14T19:53:51.871Z,97658.39
2018-04-14T19:56:22.913Z,97652.08
2018-04-14T19:58:53.970Z,97650.80
2018-04-14T20:01:24.973Z,97656.16
2018-04-14T20:04:02.904Z,97657.13
2018-04-14T20:06:33.960Z,97650.42
2018-04-14T20:09:04.990Z,97651.79
2018-04-14T20:11:35.985Z,97647.80
2018-04-14T20:14:07.010Z,97656.47
2018-04-14T20:16:38.062Z,97653.92
2018-04-14T20:19:09.087Z,97648.90
2018-04-14T20:21:40.120Z,97645.11
2018-04-14T20:24:11.122Z,97643.97
2018-04-14T20:26:42.157Z,97643.57
2018-04-14T20:29:13.133Z,97634.33
2018-04-14T20:31:44.094Z,97638.77
2018-04-14T20:34:15.056Z,97641.56
2018-04-14T20:36:46.062Z,97633.70
2018-04-14T20:39:17.062Z,97634.45
2018-04-14T20:41:48.066Z,97624.94
2018-04-14T20:44:19.072Z,97635.09
2018-04-14T20:46:50.081Z,97632.44
2018-04-14T20:49:21.066Z,97636.97
2018-04-14T20:51:52.107Z,97634.44
2018-04-14T20:54:23.120Z,97627.00
2018-04-14T20:56:54.140Z,97627.67
2018-04-14T20:59:25.140Z,97616.81
2018-04-14T21:01:56.148Z,97615.36
2018-04-14T21:04:27.179Z,97608.77
2018-04-14T21:06:58.171Z,97609.31
2018-04-14T21:09:29.146Z,97609.72
2018-04-14T21:12:00.182Z,97613.21
2018-04-14T21:14:31.160Z,97605.38
2018-04-14T21:17:05.034Z,97604.91
2018-04-14T21:19:36.048Z,97603.36
2018-04-14T21:22:07.111Z,97599.29
2018-04-14T21:24:38.082Z,97598.74
2018-04-14T21:27:09.134Z,97595.73
2018-04-14T21:29:40.104Z,97597.86
2018-04-14T21:32:11.073Z,97596.05
2018-04-14T21:34:42.068Z,97596.84
2018-04-14T21:37:13.072Z,97595.52
2018-04-14T21:39:44.098Z,97597.64
2018-04-14T21:42:15.095Z,97603.39
2018-04-14T21:44:46.707Z,97601.80
2018-04-14T21:47:17.724Z,97598.75
2018-04-14T21:49:48.731Z,97591.71
2018-04-14T21:52:19.709Z,97588.27
2018-04-14T21:54:50.682Z,97585.38
2018-04-14T21:57:21.682Z,97592.20
2018-04-14T21:59:52.689Z,97591.05
2018-04-14T22:02:23.690Z,97592.23
2018-04-14T22:04:54.694Z,97593.97
2018-04-14T22:07:25.675Z,97595.83
2018-04-14T22:09:56.651Z,97587.07
2018-04-14T22:12:27.655Z,97582.16
2018-04-14T22:14:58.698Z,97577.12
2018-04-14T22:17:29.671Z,97572.74
2018-04-14T22:20:00.715Z,97569.06
2018-04-14T22:22:32.240Z,97560.70
2018-04-14T22:25:03.267Z,97556.87
2018-04-14T22:27:34.261Z,97549.73
2018-04-14T22:30:05.323Z,97547.26
2018-04-14T22:32:36.282Z,97549.69
2018-04-14T22:35:07.318Z,97546.28
2018-04-14T22:37:38.329Z,97544.16
2018-04-14T22:40:09.340Z,97544.29
2018-04-14T22:42:40.360Z,97537.43
2018-04-14T22:45:11.392Z,97544.72
2018-04-14T22:47:42.427Z,97535.34
2018-04-14T22:50:13.387Z,97527.30
2018-04-14T22:52:44.473Z,97524.41
2018-04-14T22:55:15.494Z,97515.53
2018-04-14T22:57:46.467Z,97510.66
2018-04-14T23:00:17.442Z,97510.39
2018-04-14T23:02:48.490Z,97509.44
2018-04-14T23:05:19.515Z,97500.28
2018-04-14T23:07:50.551Z,97495.88
2018-04-14T23:10:21.562Z,97497.64
2018-04-14T23:12:52.527Z,97497.64
2018-04-14T23:15:23.488Z,97490.98
2018-04-14T23:17:54.477Z,97482.92
2018-04-14T23:20:25.516Z,97473.78
2018-04-14T23:22:56.543Z,97468.22
2018-04-14T23:25:27.580Z,97461.06
2018-04-14T23:27:58.586Z,97460.14
2018-04-14T23:30:29.601Z,97451.70
2018-04-14T23:33:00.692Z,97451.47
2018-04-14T23:35:31.719Z,97451.77
2018-04-14T23:38:02.733Z,97456.16
2018-04-14T23:40:33.782Z,97455.23
2018-04-14T23:43:04.819Z,97450.87
2018-04-14T23:45:35.795Z,97452.06
2018-04-14T23:48:06.835Z,97447.98
2018-04-14T23:50:37.863Z,97448.38
2018-04-14T23:53:08.836Z,97439.37
2018-04-14T23:55:39.820Z,97439.51
2018-04-14T23:58:10.827Z,97436.09
